Terminal Aerodrome Forecast
Issued by NWS

Home | Current Version | Previous Version | Text Only | Print | Product List | Glossary On
Versions: 1 2 3 4 5 6 7 8 9 10 11 12 13 14 15 16
884
FTAK31 PAJN 100325 AAA
TAFAYA
TAF AMD
PAYA 100325Z 1003/1024 07003KT P6SM FEW005 BKN200 WS020/06025KT
      TEMPO 1003/1007 00000KT 2SM BR SCT005
     FM101300 06010KT 4SM -RA BR SCT010 BKN025 OVC050 WS020/08030KT
     FM102100 12012KT P6SM -RA SCT025 OVC050
      AMD LTD TO CLD VIS AND WIND TIL 100900=

USA.gov is the U.S. government's official web portal to all federal, state and local government web resources and services.